sensor_id;sensor_type;location;lat;lon;timestamp;P1;durP1;ratioP1;P2;durP2;ratioP2
11197;SDS011;5655;48.744;9.162;2024-01-15T00:02:05;22.23;;;10.10;;
11197;SDS011;5655;48.744;9.162;2024-01-15T00:04:31;21.30;;;10.17;;
11197;SDS011;5655;48.744;9.162;2024-01-15T00:07:01;17.07;;;8.70;;
11197;SDS011;5655;48.744;9.162;2024-01-15T00:09:27;19.60;;;9.60;;
11197;SDS011;5655;48.744;9.162;2024-01-15T00:11:52;19.43;;;9.00;;
11197;SDS011;5655;48.744;9.162;2024-01-15T00:14:18;20.23;;;9.57;;
11197;SDS011;5655;48.744;9.162;2024-01-15T00:16:45;23.20;;;9.27;;
11197;SDS011;5655;48.744;9.162;2024-01-15T00:19:10;23.13;;;9.47;;
11197;SDS011;5655;48.744;9.162;2024-01-15T00:21:36;22.27;;;9.60;;
11197;SDS011;5655;48.744;9.162;2024-01-15T00:24:01;20.23;;;9.53;;
11197;SDS011;5655;48.744;9.162;2024-01-15T00:26:26;19.60;;;8.13;;
11197;SDS011;5655;48.744;9.162;2024-01-15T00:28:52;19.90;;;9.67;;
11197;SDS011;5655;48.744;9.162;2024-01-15T00:31:17;20.70;;;9.10;;
11197;SDS011;5655;48.744;9.162;2024-01-15T00:33:43;21.43;;;9.57;;
11197;SDS011;5655;48.744;9.162;2024-01-15T00:36:08;17.17;;;8.80;;
11197;SDS011;5655;48.744;9.162;2024-01-15T00:38:33;19.10;;;8.63;;
11197;SDS011;5655;48.744;9.162;2024-01-15T00:40:58;21.97;;;8.93;;
11197;SDS011;5655;48.744;9.162;2024-01-15T00:43:24;21.90;;;8.90;;
11197;SDS011;5655;48.744;9.162;2024-01-15T00:45:49;18.33;;;8.80;;
11197;SDS011;5655;48.744;9.162;2024-01-15T00:48:14;18.23;;;8.33;;
11197;SDS011;5655;48.744;9.162;2024-01-15T00:50:40;22.90;;;9.00;;
11197;SDS011;5655;48.744;9.162;2024-01-15T00:53:05;21.40;;;8.93;;
11197;SDS011;5655;48.744;9.162;2024-01-15T00:55:30;17.47;;;8.43;;
11197;SDS011;5655;48.744;9.162;2024-01-15T00:57:56;20.30;;;8.47;;
11197;SDS011;5655;48.744;9.162;2024-01-15T01:00:21;19.80;;;8.37;;
11197;SDS011;5655;48.744;9.162;2024-01-15T01:02:46;21.73;;;8.80;;
11197;SDS011;5655;48.744;9.162;2024-01-15T01:05:12;19.37;;;7.63;;
11197;SDS011;5655;48.744;9.162;2024-01-15T01:07:37;19.73;;;8.10;;
11197;SDS011;5655;48.744;9.162;2024-01-15T01:10:03;18.27;;;7.57;;
11197;SDS011;5655;48.744;9.162;2024-01-15T01:12:29;20.13;;;8.37;;
11197;SDS011;5655;48.744;9.162;2024-01-15T01:14:54;21.33;;;8.60;;
11197;SDS011;5655;48.744;9.162;2024-01-15T01:17:20;21.63;;;9.27;;
11197;SDS011;5655;48.744;9.162;2024-01-15T01:19:45;19.57;;;7.90;;
11197;SDS011;5655;48.744;9.162;2024-01-15T01:22:11;19.07;;;8.40;;
11197;SDS011;5655;48.744;9.162;2024-01-15T01:24:36;24.37;;;9.20;;
11197;SDS011;5655;48.744;9.162;2024-01-15T01:27:01;22.47;;;8.60;;
11197;SDS011;5655;48.744;9.162;2024-01-15T01:29:27;21.73;;;8.90;;
11197;SDS011;5655;48.744;9.162;2024-01-15T01:31:52;23.27;;;8.50;;
11197;SDS011;5655;48.744;9.162;2024-01-15T01:34:17;19.67;;;7.67;;
11197;SDS011;5655;48.744;9.162;2024-01-15T01:36:43;19.63;;;8.50;;
11197;SDS011;5655;48.744;9.162;2024-01-15T01:39:08;20.80;;;9.53;;
11197;SDS011;5655;48.744;9.162;2024-01-15T01:41:34;23.17;;;8.57;;
11197;SDS011;5655;48.744;9.162;2024-01-15T01:44:00;21.07;;;8.27;;
11197;SDS011;5655;48.744;9.162;2024-01-15T01:46:25;19.43;;;8.70;;
11197;SDS011;5655;48.744;9.162;2024-01-15T01:48:52;18.80;;;8.53;;
11197;SDS011;5655;48.744;9.162;2024-01-15T01:51:20;21.07;;;8.07;;
11197;SDS011;5655;48.744;9.162;2024-01-15T01:53:48;18.90;;;8.20;;
11197;SDS011;5655;48.744;9.162;2024-01-15T01:56:14;19.93;;;8.97;;
11197;SDS011;5655;48.744;9.162;2024-01-15T01:58:39;19.53;;;7.60;;
11197;SDS011;5655;48.744;9.162;2024-01-15T02:01:05;17.57;;;7.70;;
11197;SDS011;5655;48.744;9.162;2024-01-15T02:03:31;19.40;;;8.03;;
11197;SDS011;5655;48.744;9.162;2024-01-15T02:05:57;19.13;;;8.10;;
11197;SDS011;5655;48.744;9.162;2024-01-15T02:08:23;23.90;;;8.43;;
11197;SDS011;5655;48.744;9.162;2024-01-15T02:10:48;19.57;;;8.77;;
11197;SDS011;5655;48.744;9.162;2024-01-15T02:13:14;17.37;;;7.83;;
11197;SDS011;5655;48.744;9.162;2024-01-15T02:15:39;15.67;;;7.57;;
11197;SDS011;5655;48.744;9.162;2024-01-15T02:18:05;18.43;;;8.53;;
11197;SDS011;5655;48.744;9.162;2024-01-15T02:20:32;17.90;;;6.97;;
11197;SDS011;5655;48.744;9.162;2024-01-15T02:23:14;15.23;;;7.63;;
11197;SDS011;5655;48.744;9.162;2024-01-15T02:25:44;16.80;;;7.80;;
11197;SDS011;5655;48.744;9.162;2024-01-15T02:28:11;19.87;;;8.97;;
11197;SDS011;5655;48.744;9.162;2024-01-15T02:30:39;21.00;;;8.73;;
11197;SDS011;5655;48.744;9.162;2024-01-15T02:33:05;18.87;;;8.27;;
11197;SDS011;5655;48.744;9.162;2024-01-15T02:35:31;17.83;;;8.30;;
11197;SDS011;5655;48.744;9.162;2024-01-15T02:37:58;15.10;;;7.60;;
11197;SDS011;5655;48.744;9.162;2024-01-15T02:40:23;19.63;;;8.20;;
11197;SDS011;5655;48.744;9.162;2024-01-15T02:42:48;20.20;;;8.50;;
11197;SDS011;5655;48.744;9.162;2024-01-15T02:45:14;18.73;;;8.30;;
11197;SDS011;5655;48.744;9.162;2024-01-15T02:47:39;18.37;;;7.33;;
11197;SDS011;5655;48.744;9.162;2024-01-15T02:50:05;16.90;;;7.50;;
11197;SDS011;5655;48.744;9.162;2024-01-15T02:52:30;20.10;;;8.43;;
11197;SDS011;5655;48.744;9.162;2024-01-15T02:54:56;17.43;;;8.67;;
11197;SDS011;5655;48.744;9.162;2024-01-15T02:57:21;20.40;;;8.43;;
11197;SDS011;5655;48.744;9.162;2024-01-15T02:59:46;20.53;;;8.13;;
11197;SDS011;5655;48.744;9.162;2024-01-15T03:02:11;16.50;;;7.90;;
11197;SDS011;5655;48.744;9.162;2024-01-15T03:04:37;19.13;;;8.03;;
11197;SDS011;5655;48.744;9.162;2024-01-15T03:07:02;20.97;;;8.73;;
11197;SDS011;5655;48.744;9.162;2024-01-15T03:09:27;20.90;;;8.30;;
11197;SDS011;5655;48.744;9.162;2024-01-15T03:11:53;20.40;;;8.43;;
11197;SDS011;5655;48.744;9.162;2024-01-15T03:14:18;18.10;;;8.03;;
11197;SDS011;5655;48.744;9.162;2024-01-15T03:16:45;18.30;;;8.03;;
11197;SDS011;5655;48.744;9.162;2024-01-15T03:19:10;18.20;;;8.90;;
11197;SDS011;5655;48.744;9.162;2024-01-15T03:21:35;18.77;;;7.77;;
11197;SDS011;5655;48.744;9.162;2024-01-15T03:24:01;18.83;;;7.47;;
11197;SDS011;5655;48.744;9.162;2024-01-15T03:26:26;21.00;;;8.50;;
11197;SDS011;5655;48.744;9.162;2024-01-15T03:28:51;16.57;;;7.93;;
11197;SDS011;5655;48.744;9.162;2024-01-15T03:31:17;21.23;;;8.53;;
11197;SDS011;5655;48.744;9.162;2024-01-15T03:33:42;19.33;;;8.47;;
11197;SDS011;5655;48.744;9.162;2024-01-15T03:36:07;21.13;;;8.97;;
11197;SDS011;5655;48.744;9.162;2024-01-15T03:38:33;20.97;;;8.33;;
11197;SDS011;5655;48.744;9.162;2024-01-15T03:40:59;18.70;;;8.67;;
11197;SDS011;5655;48.744;9.162;2024-01-15T03:43:24;15.57;;;8.33;;
11197;SDS011;5655;48.744;9.162;2024-01-15T03:45:49;22.03;;;8.67;;
11197;SDS011;5655;48.744;9.162;2024-01-15T03:48:14;20.23;;;7.90;;
11197;SDS011;5655;48.744;9.162;2024-01-15T03:50:40;23.40;;;8.77;;
11197;SDS011;5655;48.744;9.162;2024-01-15T03:53:05;16.07;;;7.40;;
11197;SDS011;5655;48.744;9.162;2024-01-15T03:55:30;22.27;;;9.03;;
11197;SDS011;5655;48.744;9.162;2024-01-15T03:57:57;18.10;;;8.33;;
11197;SDS011;5655;48.744;9.162;2024-01-15T04:00:22;17.90;;;8.10;;
11197;SDS011;5655;48.744;9.162;2024-01-15T04:02:48;19.43;;;8.00;;
11197;SDS011;5655;48.744;9.162;2024-01-15T04:05:13;19.63;;;7.60;;
11197;SDS011;5655;48.744;9.162;2024-01-15T04:07:38;14.80;;;6.80;;
11197;SDS011;5655;48.744;9.162;2024-01-15T04:10:04;13.50;;;6.87;;
11197;SDS011;5655;48.744;9.162;2024-01-15T04:12:30;15.27;;;7.20;;
11197;SDS011;5655;48.744;9.162;2024-01-15T04:14:55;13.00;;;6.83;;
11197;SDS011;5655;48.744;9.162;2024-01-15T04:17:20;16.60;;;6.70;;
11197;SDS011;5655;48.744;9.162;2024-01-15T04:19:46;16.70;;;6.83;;
11197;SDS011;5655;48.744;9.162;2024-01-15T04:22:13;15.77;;;6.80;;
11197;SDS011;5655;48.744;9.162;2024-01-15T04:24:38;14.97;;;7.13;;
11197;SDS011;5655;48.744;9.162;2024-01-15T04:27:04;12.37;;;6.10;;
11197;SDS011;5655;48.744;9.162;2024-01-15T04:29:29;16.07;;;6.17;;
11197;SDS011;5655;48.744;9.162;2024-01-15T04:31:54;15.07;;;6.90;;
11197;SDS011;5655;48.744;9.162;2024-01-15T04:34:20;17.27;;;6.87;;
11197;SDS011;5655;48.744;9.162;2024-01-15T04:36:45;15.67;;;6.60;;
11197;SDS011;5655;48.744;9.162;2024-01-15T04:39:10;13.73;;;6.77;;
11197;SDS011;5655;48.744;9.162;2024-01-15T04:41:36;16.67;;;7.03;;
11197;SDS011;5655;48.744;9.162;2024-01-15T04:44:02;17.37;;;7.20;;
11197;SDS011;5655;48.744;9.162;2024-01-15T04:46:27;16.90;;;7.53;;
11197;SDS011;5655;48.744;9.162;2024-01-15T04:48:52;13.07;;;6.53;;
11197;SDS011;5655;48.744;9.162;2024-01-15T04:51:18;17.93;;;8.37;;
11197;SDS011;5655;48.744;9.162;2024-01-15T04:53:44;20.83;;;8.53;;
11197;SDS011;5655;48.744;9.162;2024-01-15T04:56:09;15.53;;;7.50;;
11197;SDS011;5655;48.744;9.162;2024-01-15T04:58:34;17.90;;;7.90;;
11197;SDS011;5655;48.744;9.162;2024-01-15T05:01:00;17.97;;;8.33;;
11197;SDS011;5655;48.744;9.162;2024-01-15T05:03:25;19.63;;;8.30;;
11197;SDS011;5655;48.744;9.162;2024-01-15T05:05:50;18.50;;;7.30;;
11197;SDS011;5655;48.744;9.162;2024-01-15T05:08:15;22.60;;;8.43;;
11197;SDS011;5655;48.744;9.162;2024-01-15T05:10:41;16.47;;;8.20;;
11197;SDS011;5655;48.744;9.162;2024-01-15T05:13:06;20.47;;;8.93;;
11197;SDS011;5655;48.744;9.162;2024-01-15T05:15:31;22.13;;;9.17;;
11197;SDS011;5655;48.744;9.162;2024-01-15T05:17:57;19.73;;;8.13;;
11197;SDS011;5655;48.744;9.162;2024-01-15T05:20:22;19.37;;;9.13;;
11197;SDS011;5655;48.744;9.162;2024-01-15T05:22:48;19.83;;;7.83;;
11197;SDS011;5655;48.744;9.162;2024-01-15T05:25:13;17.90;;;8.40;;
11197;SDS011;5655;48.744;9.162;2024-01-15T05:27:39;16.53;;;7.23;;
11197;SDS011;5655;48.744;9.162;2024-01-15T05:30:08;18.70;;;7.57;;
11197;SDS011;5655;48.744;9.162;2024-01-15T05:32:34;16.77;;;8.07;;
11197;SDS011;5655;48.744;9.162;2024-01-15T05:35:05;16.87;;;7.10;;
11197;SDS011;5655;48.744;9.162;2024-01-15T05:37:38;17.77;;;7.57;;
11197;SDS011;5655;48.744;9.162;2024-01-15T05:40:20;17.27;;;8.13;;
11197;SDS011;5655;48.744;9.162;2024-01-15T05:42:52;19.17;;;9.00;;
11197;SDS011;5655;48.744;9.162;2024-01-15T05:45:17;17.67;;;8.17;;
11197;SDS011;5655;48.744;9.162;2024-01-15T05:47:57;19.37;;;7.83;;
11197;SDS011;5655;48.744;9.162;2024-01-15T05:50:57;16.57;;;7.70;;
11197;SDS011;5655;48.744;9.162;2024-01-15T05:53:35;18.03;;;7.60;;
11197;SDS011;5655;48.744;9.162;2024-01-15T05:56:15;15.70;;;7.93;;
11197;SDS011;5655;48.744;9.162;2024-01-15T05:58:40;13.60;;;7.77;;
11197;SDS011;5655;48.744;9.162;2024-01-15T06:01:06;21.27;;;8.43;;
11197;SDS011;5655;48.744;9.162;2024-01-15T06:03:31;18.33;;;7.60;;
11197;SDS011;5655;48.744;9.162;2024-01-15T06:05:56;17.63;;;8.40;;
11197;SDS011;5655;48.744;9.162;2024-01-15T06:08:22;18.47;;;7.87;;
11197;SDS011;5655;48.744;9.162;2024-01-15T06:10:47;14.17;;;7.33;;
11197;SDS011;5655;48.744;9.162;2024-01-15T06:13:12;15.10;;;7.13;;
11197;SDS011;5655;48.744;9.162;2024-01-15T06:15:38;16.17;;;7.83;;
11197;SDS011;5655;48.744;9.162;2024-01-15T06:18:04;14.90;;;7.10;;
11197;SDS011;5655;48.744;9.162;2024-01-15T06:20:29;12.87;;;6.80;;
11197;SDS011;5655;48.744;9.162;2024-01-15T06:22:55;13.93;;;6.90;;
11197;SDS011;5655;48.744;9.162;2024-01-15T06:25:20;17.47;;;7.80;;
11197;SDS011;5655;48.744;9.162;2024-01-15T06:27:45;12.07;;;6.63;;
11197;SDS011;5655;48.744;9.162;2024-01-15T06:30:11;14.47;;;6.27;;
11197;SDS011;5655;48.744;9.162;2024-01-15T06:32:36;12.90;;;6.53;;
11197;SDS011;5655;48.744;9.162;2024-01-15T06:35:02;18.60;;;7.40;;
11197;SDS011;5655;48.744;9.162;2024-01-15T06:37:27;17.27;;;6.73;;
11197;SDS011;5655;48.744;9.162;2024-01-15T06:39:53;17.83;;;7.60;;
11197;SDS011;5655;48.744;9.162;2024-01-15T06:42:18;19.10;;;8.53;;
11197;SDS011;5655;48.744;9.162;2024-01-15T06:44:43;14.80;;;7.73;;
11197;SDS011;5655;48.744;9.162;2024-01-15T06:47:09;17.60;;;7.53;;
11197;SDS011;5655;48.744;9.162;2024-01-15T06:49:34;16.40;;;7.53;;
11197;SDS011;5655;48.744;9.162;2024-01-15T06:51:59;15.97;;;7.30;;
11197;SDS011;5655;48.744;9.162;2024-01-15T06:54:25;15.47;;;7.30;;
11197;SDS011;5655;48.744;9.162;2024-01-15T06:56:51;15.60;;;7.53;;
11197;SDS011;5655;48.744;9.162;2024-01-15T06:59:16;14.13;;;7.70;;
11197;SDS011;5655;48.744;9.162;2024-01-15T07:01:42;13.50;;;7.10;;
11197;SDS011;5655;48.744;9.162;2024-01-15T07:04:07;14.07;;;6.37;;
11197;SDS011;5655;48.744;9.162;2024-01-15T07:06:33;14.30;;;7.07;;
11197;SDS011;5655;48.744;9.162;2024-01-15T07:08:58;12.50;;;6.80;;
11197;SDS011;5655;48.744;9.162;2024-01-15T07:11:23;17.27;;;7.73;;
11197;SDS011;5655;48.744;9.162;2024-01-15T07:13:49;12.97;;;6.80;;
11197;SDS011;5655;48.744;9.162;2024-01-15T07:16:14;13.53;;;6.37;;
11197;SDS011;5655;48.744;9.162;2024-01-15T07:18:40;15.20;;;7.20;;
11197;SDS011;5655;48.744;9.162;2024-01-15T07:21:06;15.37;;;6.87;;
11197;SDS011;5655;48.744;9.162;2024-01-15T07:23:31;13.30;;;6.57;;
11197;SDS011;5655;48.744;9.162;2024-01-15T07:25:57;15.10;;;7.57;;
11197;SDS011;5655;48.744;9.162;2024-01-15T07:28:22;15.33;;;6.80;;
11197;SDS011;5655;48.744;9.162;2024-01-15T07:30:48;12.90;;;6.87;;
11197;SDS011;5655;48.744;9.162;2024-01-15T07:33:13;15.80;;;7.17;;
11197;SDS011;5655;48.744;9.162;2024-01-15T07:35:38;11.10;;;6.40;;
11197;SDS011;5655;48.744;9.162;2024-01-15T07:38:04;17.20;;;8.00;;
11197;SDS011;5655;48.744;9.162;2024-01-15T07:40:29;12.57;;;6.97;;
11197;SDS011;5655;48.744;9.162;2024-01-15T07:42:55;14.50;;;7.07;;
11197;SDS011;5655;48.744;9.162;2024-01-15T07:45:20;17.30;;;7.23;;
11197;SDS011;5655;48.744;9.162;2024-01-15T07:47:45;13.17;;;6.37;;
11197;SDS011;5655;48.744;9.162;2024-01-15T07:50:11;12.30;;;6.07;;
11197;SDS011;5655;48.744;9.162;2024-01-15T07:52:36;14.83;;;6.40;;
11197;SDS011;5655;48.744;9.162;2024-01-15T07:55:02;11.23;;;6.37;;
11197;SDS011;5655;48.744;9.162;2024-01-15T07:57:29;14.20;;;6.63;;
11197;SDS011;5655;48.744;9.162;2024-01-15T07:59:55;11.30;;;5.93;;
11197;SDS011;5655;48.744;9.162;2024-01-15T08:02:20;11.77;;;6.27;;
11197;SDS011;5655;48.744;9.162;2024-01-15T08:04:46;12.87;;;6.40;;
11197;SDS011;5655;48.744;9.162;2024-01-15T08:07:12;11.37;;;5.70;;
11197;SDS011;5655;48.744;9.162;2024-01-15T08:09:38;11.17;;;6.03;;
11197;SDS011;5655;48.744;9.162;2024-01-15T08:12:03;14.10;;;6.93;;
11197;SDS011;5655;48.744;9.162;2024-01-15T08:14:31;14.80;;;6.80;;
11197;SDS011;5655;48.744;9.162;2024-01-15T08:16:56;14.03;;;5.83;;
11197;SDS011;5655;48.744;9.162;2024-01-15T08:19:22;12.27;;;6.67;;
11197;SDS011;5655;48.744;9.162;2024-01-15T08:21:47;9.10;;;5.37;;
11197;SDS011;5655;48.744;9.162;2024-01-15T08:24:12;12.67;;;6.17;;
11197;SDS011;5655;48.744;9.162;2024-01-15T08:26:38;11.33;;;5.53;;
11197;SDS011;5655;48.744;9.162;2024-01-15T08:29:03;11.60;;;6.37;;
11197;SDS011;5655;48.744;9.162;2024-01-15T08:31:28;11.40;;;5.93;;
11197;SDS011;5655;48.744;9.162;2024-01-15T08:33:54;10.90;;;6.63;;
11197;SDS011;5655;48.744;9.162;2024-01-15T08:36:21;11.20;;;6.07;;
11197;SDS011;5655;48.744;9.162;2024-01-15T08:38:46;12.90;;;6.10;;
11197;SDS011;5655;48.744;9.162;2024-01-15T08:41:11;11.70;;;6.07;;
11197;SDS011;5655;48.744;9.162;2024-01-15T08:43:37;12.37;;;6.33;;
11197;SDS011;5655;48.744;9.162;2024-01-15T08:46:02;13.10;;;6.10;;
11197;SDS011;5655;48.744;9.162;2024-01-15T08:48:28;12.40;;;6.30;;
11197;SDS011;5655;48.744;9.162;2024-01-15T08:50:54;12.10;;;5.97;;
11197;SDS011;5655;48.744;9.162;2024-01-15T08:53:20;9.60;;;5.13;;
11197;SDS011;5655;48.744;9.162;2024-01-15T08:55:45;7.97;;;5.10;;
11197;SDS011;5655;48.744;9.162;2024-01-15T08:58:11;13.93;;;5.63;;
11197;SDS011;5655;48.744;9.162;2024-01-15T09:00:36;9.10;;;4.87;;
11197;SDS011;5655;48.744;9.162;2024-01-15T09:03:02;10.27;;;5.40;;
11197;SDS011;5655;48.744;9.162;2024-01-15T09:05:27;9.17;;;4.93;;
11197;SDS011;5655;48.744;9.162;2024-01-15T09:07:53;10.97;;;4.63;;
11197;SDS011;5655;48.744;9.162;2024-01-15T09:10:19;10.33;;;4.30;;
11197;SDS011;5655;48.744;9.162;2024-01-15T09:12:45;10.10;;;5.17;;
11197;SDS011;5655;48.744;9.162;2024-01-15T09:15:10;9.40;;;4.83;;
11197;SDS011;5655;48.744;9.162;2024-01-15T09:17:36;9.57;;;4.30;;
11197;SDS011;5655;48.744;9.162;2024-01-15T09:20:01;9.00;;;4.33;;
11197;SDS011;5655;48.744;9.162;2024-01-15T09:22:27;8.73;;;4.53;;
11197;SDS011;5655;48.744;9.162;2024-01-15T09:24:52;9.43;;;4.53;;
11197;SDS011;5655;48.744;9.162;2024-01-15T09:27:18;8.93;;;4.27;;
11197;SDS011;5655;48.744;9.162;2024-01-15T09:29:43;7.47;;;4.10;;
11197;SDS011;5655;48.744;9.162;2024-01-15T09:32:10;6.43;;;4.30;;
11197;SDS011;5655;48.744;9.162;2024-01-15T09:34:37;11.30;;;5.10;;
11197;SDS011;5655;48.744;9.162;2024-01-15T09:37:02;10.77;;;4.80;;
11197;SDS011;5655;48.744;9.162;2024-01-15T09:39:29;9.67;;;4.23;;
11197;SDS011;5655;48.744;9.162;2024-01-15T09:41:55;7.70;;;3.90;;
11197;SDS011;5655;48.744;9.162;2024-01-15T09:44:22;9.23;;;3.87;;
11197;SDS011;5655;48.744;9.162;2024-01-15T09:46:48;9.43;;;3.97;;
11197;SDS011;5655;48.744;9.162;2024-01-15T09:49:16;7.00;;;3.47;;
11197;SDS011;5655;48.744;9.162;2024-01-15T09:51:42;13.60;;;5.57;;
11197;SDS011;5655;48.744;9.162;2024-01-15T09:54:08;9.10;;;4.43;;
11197;SDS011;5655;48.744;9.162;2024-01-15T09:56:34;9.97;;;4.37;;
11197;SDS011;5655;48.744;9.162;2024-01-15T09:59:00;11.13;;;5.00;;
11197;SDS011;5655;48.744;9.162;2024-01-15T10:01:26;8.13;;;4.23;;
11197;SDS011;5655;48.744;9.162;2024-01-15T10:03:51;8.87;;;4.53;;
11197;SDS011;5655;48.744;9.162;2024-01-15T10:06:18;10.50;;;4.77;;
11197;SDS011;5655;48.744;9.162;2024-01-15T10:08:48;15.67;;;5.43;;
11197;SDS011;5655;48.744;9.162;2024-01-15T10:11:15;9.30;;;4.73;;
11197;SDS011;5655;48.744;9.162;2024-01-15T10:13:41;8.90;;;4.57;;
11197;SDS011;5655;48.744;9.162;2024-01-15T10:16:08;8.90;;;4.80;;
11197;SDS011;5655;48.744;9.162;2024-01-15T10:18:34;7.20;;;3.97;;
11197;SDS011;5655;48.744;9.162;2024-01-15T10:21:00;8.30;;;4.53;;
11197;SDS011;5655;48.744;9.162;2024-01-15T10:23:27;7.70;;;4.57;;
11197;SDS011;5655;48.744;9.162;2024-01-15T10:25:53;8.53;;;4.17;;
11197;SDS011;5655;48.744;9.162;2024-01-15T10:28:18;10.27;;;4.57;;
11197;SDS011;5655;48.744;9.162;2024-01-15T10:30:44;9.93;;;4.30;;
11197;SDS011;5655;48.744;9.162;2024-01-15T10:33:10;11.37;;;4.50;;
11197;SDS011;5655;48.744;9.162;2024-01-15T10:35:36;9.77;;;4.53;;
11197;SDS011;5655;48.744;9.162;2024-01-15T10:38:03;6.57;;;4.03;;
11197;SDS011;5655;48.744;9.162;2024-01-15T10:40:30;9.73;;;4.67;;
11197;SDS011;5655;48.744;9.162;2024-01-15T10:42:56;8.77;;;3.80;;
11197;SDS011;5655;48.744;9.162;2024-01-15T10:45:22;8.97;;;4.53;;
11197;SDS011;5655;48.744;9.162;2024-01-15T10:47:48;7.23;;;4.03;;
11197;SDS011;5655;48.744;9.162;2024-01-15T10:50:14;5.87;;;3.80;;
11197;SDS011;5655;48.744;9.162;2024-01-15T10:52:40;8.00;;;4.03;;
11197;SDS011;5655;48.744;9.162;2024-01-15T10:55:10;8.60;;;3.80;;
11197;SDS011;5655;48.744;9.162;2024-01-15T10:57:36;7.03;;;4.13;;
11197;SDS011;5655;48.744;9.162;2024-01-15T11:00:02;8.37;;;4.20;;
11197;SDS011;5655;48.744;9.162;2024-01-15T11:02:30;9.00;;;4.47;;
11197;SDS011;5655;48.744;9.162;2024-01-15T11:04:58;9.07;;;4.47;;
11197;SDS011;5655;48.744;9.162;2024-01-15T11:07:24;8.60;;;4.53;;
11197;SDS011;5655;48.744;9.162;2024-01-15T11:09:50;9.33;;;4.60;;
11197;SDS011;5655;48.744;9.162;2024-01-15T11:12:16;10.97;;;4.70;;
11197;SDS011;5655;48.744;9.162;2024-01-15T11:14:45;14.83;;;5.27;;
11197;SDS011;5655;48.744;9.162;2024-01-15T11:17:12;7.97;;;4.30;;
11197;SDS011;5655;48.744;9.162;2024-01-15T11:22:09;11.93;;;4.73;;
11197;SDS011;5655;48.744;9.162;2024-01-15T11:24:54;8.87;;;4.77;;
11197;SDS011;5655;48.744;9.162;2024-01-15T11:27:21;8.87;;;4.60;;
11197;SDS011;5655;48.744;9.162;2024-01-15T11:30:08;9.60;;;4.73;;
11197;SDS011;5655;48.744;9.162;2024-01-15T11:32:35;9.30;;;4.50;;
11197;SDS011;5655;48.744;9.162;2024-01-15T11:35:01;7.33;;;4.67;;
11197;SDS011;5655;48.744;9.162;2024-01-15T11:37:28;15.07;;;4.60;;
11197;SDS011;5655;48.744;9.162;2024-01-15T11:39:55;8.97;;;5.13;;
11197;SDS011;5655;48.744;9.162;2024-01-15T11:42:25;10.03;;;4.93;;
11197;SDS011;5655;48.744;9.162;2024-01-15T11:44:52;10.70;;;5.30;;
11197;SDS011;5655;48.744;9.162;2024-01-15T11:47:23;9.93;;;5.00;;
11197;SDS011;5655;48.744;9.162;2024-01-15T11:50:10;9.90;;;5.40;;
11197;SDS011;5655;48.744;9.162;2024-01-15T11:52:37;9.10;;;4.70;;
11197;SDS011;5655;48.744;9.162;2024-01-15T11:55:18;12.60;;;5.03;;
11197;SDS011;5655;48.744;9.162;2024-01-15T12:00:16;10.07;;;5.23;;
11197;SDS011;5655;48.744;9.162;2024-01-15T12:02:43;9.17;;;4.73;;
11197;SDS011;5655;48.744;9.162;2024-01-15T12:05:10;10.33;;;5.30;;
11197;SDS011;5655;48.744;9.162;2024-01-15T12:07:49;8.23;;;4.80;;
11197;SDS011;5655;48.744;9.162;2024-01-15T12:10:15;8.43;;;5.03;;
11197;SDS011;5655;48.744;9.162;2024-01-15T12:15:34;10.00;;;5.33;;
11197;SDS011;5655;48.744;9.162;2024-01-15T12:18:00;9.13;;;5.33;;
11197;SDS011;5655;48.744;9.162;2024-01-15T12:20:27;8.90;;;5.43;;
11197;SDS011;5655;48.744;9.162;2024-01-15T12:22:54;11.53;;;5.97;;
11197;SDS011;5655;48.744;9.162;2024-01-15T12:25:23;13.87;;;6.67;;
11197;SDS011;5655;48.744;9.162;2024-01-15T12:27:49;10.37;;;5.20;;
11197;SDS011;5655;48.744;9.162;2024-01-15T12:30:15;11.57;;;5.67;;
11197;SDS011;5655;48.744;9.162;2024-01-15T12:32:41;12.90;;;6.13;;
11197;SDS011;5655;48.744;9.162;2024-01-15T12:35:07;17.43;;;6.90;;
11197;SDS011;5655;48.744;9.162;2024-01-15T12:37:36;11.10;;;6.47;;
11197;SDS011;5655;48.744;9.162;2024-01-15T12:40:04;13.67;;;6.70;;
11197;SDS011;5655;48.744;9.162;2024-01-15T12:42:35;16.20;;;7.13;;
11197;SDS011;5655;48.744;9.162;2024-01-15T12:45:09;17.40;;;7.50;;
11197;SDS011;5655;48.744;9.162;2024-01-15T12:47:37;15.37;;;7.40;;
11197;SDS011;5655;48.744;9.162;2024-01-15T12:50:04;16.00;;;7.70;;
11197;SDS011;5655;48.744;9.162;2024-01-15T12:52:32;14.03;;;7.73;;
11197;SDS011;5655;48.744;9.162;2024-01-15T12:54:57;12.70;;;6.70;;
11197;SDS011;5655;48.744;9.162;2024-01-15T12:57:22;12.33;;;6.83;;
11197;SDS011;5655;48.744;9.162;2024-01-15T12:59:48;13.03;;;6.87;;
11197;SDS011;5655;48.744;9.162;2024-01-15T13:02:15;13.47;;;6.87;;
11197;SDS011;5655;48.744;9.162;2024-01-15T13:04:41;13.57;;;7.47;;
11197;SDS011;5655;48.744;9.162;2024-01-15T13:07:06;12.43;;;6.50;;
11197;SDS011;5655;48.744;9.162;2024-01-15T13:09:32;14.40;;;7.30;;
11197;SDS011;5655;48.744;9.162;2024-01-15T13:11:58;14.43;;;7.70;;
11197;SDS011;5655;48.744;9.162;2024-01-15T13:14:24;12.63;;;6.30;;
11197;SDS011;5655;48.744;9.162;2024-01-15T13:16:49;13.10;;;6.37;;
11197;SDS011;5655;48.744;9.162;2024-01-15T13:19:15;12.03;;;6.60;;
11197;SDS011;5655;48.744;9.162;2024-01-15T13:21:40;15.13;;;6.13;;
11197;SDS011;5655;48.744;9.162;2024-01-15T13:24:06;14.03;;;6.93;;
11197;SDS011;5655;48.744;9.162;2024-01-15T13:26:32;14.07;;;6.37;;
11197;SDS011;5655;48.744;9.162;2024-01-15T13:29:01;11.47;;;5.53;;
11197;SDS011;5655;48.744;9.162;2024-01-15T13:31:28;9.07;;;5.57;;
11197;SDS011;5655;48.744;9.162;2024-01-15T13:33:54;10.97;;;5.80;;
11197;SDS011;5655;48.744;9.162;2024-01-15T13:36:20;9.10;;;5.90;;
11197;SDS011;5655;48.744;9.162;2024-01-15T13:38:46;9.63;;;4.93;;
11197;SDS011;5655;48.744;9.162;2024-01-15T13:41:12;11.83;;;5.37;;
11197;SDS011;5655;48.744;9.162;2024-01-15T13:43:37;9.17;;;5.27;;
11197;SDS011;5655;48.744;9.162;2024-01-15T13:46:02;10.73;;;4.97;;
11197;SDS011;5655;48.744;9.162;2024-01-15T13:48:29;11.57;;;4.83;;
11197;SDS011;5655;48.744;9.162;2024-01-15T13:50:56;14.23;;;5.20;;
11197;SDS011;5655;48.744;9.162;2024-01-15T13:53:22;10.47;;;5.40;;
11197;SDS011;5655;48.744;9.162;2024-01-15T13:55:47;14.63;;;5.63;;
11197;SDS011;5655;48.744;9.162;2024-01-15T13:58:12;11.07;;;5.27;;
11197;SDS011;5655;48.744;9.162;2024-01-15T14:00:38;10.13;;;4.87;;
11197;SDS011;5655;48.744;9.162;2024-01-15T14:03:04;11.67;;;5.47;;
11197;SDS011;5655;48.744;9.162;2024-01-15T14:05:30;8.80;;;5.87;;
11197;SDS011;5655;48.744;9.162;2024-01-15T14:07:55;9.33;;;5.53;;
11197;SDS011;5655;48.744;9.162;2024-01-15T14:10:20;11.03;;;5.60;;
11197;SDS011;5655;48.744;9.162;2024-01-15T14:12:46;20.77;;;7.83;;
11197;SDS011;5655;48.744;9.162;2024-01-15T14:15:11;12.27;;;6.00;;
11197;SDS011;5655;48.744;9.162;2024-01-15T14:17:37;12.90;;;6.80;;
11197;SDS011;5655;48.744;9.162;2024-01-15T14:20:02;9.30;;;5.63;;
11197;SDS011;5655;48.744;9.162;2024-01-15T14:22:30;13.87;;;6.20;;
11197;SDS011;5655;48.744;9.162;2024-01-15T14:24:55;13.47;;;5.27;;
11197;SDS011;5655;48.744;9.162;2024-01-15T14:27:20;10.93;;;4.83;;
11197;SDS011;5655;48.744;9.162;2024-01-15T14:29:46;11.93;;;5.00;;
11197;SDS011;5655;48.744;9.162;2024-01-15T14:32:12;10.47;;;5.10;;
11197;SDS011;5655;48.744;9.162;2024-01-15T14:34:37;9.27;;;4.63;;
11197;SDS011;5655;48.744;9.162;2024-01-15T14:37:03;7.30;;;3.97;;
11197;SDS011;5655;48.744;9.162;2024-01-15T14:39:29;6.00;;;3.60;;
11197;SDS011;5655;48.744;9.162;2024-01-15T14:41:57;9.53;;;4.13;;
11197;SDS011;5655;48.744;9.162;2024-01-15T14:44:22;7.20;;;4.57;;
11197;SDS011;5655;48.744;9.162;2024-01-15T14:46:47;5.53;;;4.23;;
11197;SDS011;5655;48.744;9.162;2024-01-15T14:49:13;7.90;;;4.47;;
11197;SDS011;5655;48.744;9.162;2024-01-15T14:51:39;5.87;;;3.90;;
11197;SDS011;5655;48.744;9.162;2024-01-15T14:54:04;7.97;;;4.70;;